Time;durP1;ratioP1;P1;durP2;ratioP2;P2;SDS_P1;SDS_P2;PMS_P1;PMS_P2;Temp;Humidity;BMP_temperature;BMP_pressure;BME280_temperature;BME280_humidity;BME280_pressure;Samples;Min_cycle;Max_cycle;Signal;HPM_P1;HPM_P2
2023/09/05 00:04:03;;;;;;;10.77;7.18;;;;;;;;;;10224774;29;20035;-89
2023/09/05 00:09:30;;;;;;;9.70;7.05;;;;;;;;;;10223279;29;20019;-90
2023/09/05 00:14:34;;;;;;;12.70;7.38;;;;;;;;;;10235070;29;20135;-89
2023/09/05 00:19:35;;;;;;;11.95;6.65;;;;;;;;;;10236696;29;20043;-90
2023/09/05 00:24:49;;;;;;;13.18;7.55;;;;;;;;;;10202315;29;20043;-90
2023/09/05 00:35:17;;;;;;;9.30;6.68;;;;;;;;;;10178962;29;20034;-90
2023/09/05 00:40:21;;;;;;;12.43;7.65;;;;;;;;;;10231942;29;20047;-91
2023/09/05 00:45:22;;;;;;;11.13;7.03;;;;;;;;;;10216618;29;20038;-91
2023/09/05 00:50:24;;;;;;;11.45;7.28;;;;;;;;;;10213451;29;20048;-91
2023/09/05 00:55:28;;;;;;;12.70;8.18;;;;;;;;;;10212546;29;20036;-90
2023/09/05 01:00:29;;;;;;;12.38;8.13;;;;;;;;;;10249681;29;20155;-90
2023/09/05 01:05:33;;;;;;;13.40;8.20;;;;;;;;;;10193077;29;20501;-89
2023/09/05 01:10:48;;;;;;;12.55;8.32;;;;;;;;;;10214404;29;20842;-91
2023/09/05 01:15:49;;;;;;;17.73;8.27;;;;;;;;;;10213793;29;20036;-90
2023/09/05 01:20:58;;;;;;;13.05;7.82;;;;;;;;;;10201332;29;20059;-90
2023/09/05 01:26:00;;;;;;;13.95;8.13;;;;;;;;;;10242618;29;20031;-90
2023/09/05 01:31:01;;;;;;;13.35;8.35;;;;;;;;;;10226079;29;20594;-90
2023/09/05 01:36:02;;;;;;;13.43;7.93;;;;;;;;;;10206545;29;20043;-90
2023/09/05 01:41:03;;;;;;;15.45;8.02;;;;;;;;;;10210601;29;20039;-93
2023/09/05 01:46:04;;;;;;;14.60;8.32;;;;;;;;;;10231775;29;20058;-92
2023/09/05 01:51:05;;;;;;;13.75;8.50;;;;;;;;;;10235081;29;20170;-92
2023/09/05 01:56:06;;;;;;;10.77;8.18;;;;;;;;;;10236214;29;20461;-93
2023/09/05 02:01:08;;;;;;;14.63;8.20;;;;;;;;;;10203278;29;20043;-89
2023/09/05 02:06:09;;;;;;;11.82;8.07;;;;;;;;;;10209280;29;20050;-90
2023/09/05 02:11:10;;;;;;;15.20;7.55;;;;;;;;;;10197148;29;20119;-89
2023/09/05 02:16:18;;;;;;;13.52;8.23;;;;;;;;;;10198254;29;20031;-91
2023/09/05 02:21:32;;;;;;;12.63;8.10;;;;;;;;;;10211445;29;20551;-90
2023/09/05 02:26:33;;;;;;;10.85;7.18;;;;;;;;;;10208403;29;20074;-91
2023/09/05 02:31:35;;;;;;;11.75;8.05;;;;;;;;;;10200190;29;20137;-90
2023/09/05 02:37:11;;;;;;;12.50;8.32;;;;;;;;;;10228422;29;20039;-91
2023/09/05 02:42:17;;;;;;;11.45;8.40;;;;;;;;;;10168877;29;20158;-89
2023/09/05 02:47:18;;;;;;;15.77;9.05;;;;;;;;;;10209025;29;20020;-91
2023/09/05 02:52:27;;;;;;;15.27;8.88;;;;;;;;;;10211376;29;20074;-90
2023/09/05 02:57:28;;;;;;;12.80;8.90;;;;;;;;;;10222922;29;20094;-90
2023/09/05 03:02:49;;;;;;;16.05;8.70;;;;;;;;;;10206056;29;20052;-92
2023/09/05 03:07:50;;;;;;;15.95;9.25;;;;;;;;;;10208577;29;20172;-91
2023/09/05 03:12:51;;;;;;;17.63;8.95;;;;;;;;;;10201846;29;20575;-91
2023/09/05 03:17:53;;;;;;;10.68;7.70;;;;;;;;;;10198804;29;20028;-90
2023/09/05 03:22:56;;;;;;;13.40;7.90;;;;;;;;;;10216489;29;20043;-91
2023/09/05 03:27:57;;;;;;;12.13;7.82;;;;;;;;;;10240790;28;20049;-88
2023/09/05 03:32:58;;;;;;;13.10;8.25;;;;;;;;;;10242928;29;20058;-89
2023/09/05 03:37:59;;;;;;;10.75;7.50;;;;;;;;;;10241447;28;20050;-89
2023/09/05 03:43:00;;;;;;;11.77;8.02;;;;;;;;;;10239615;28;20097;-90
2023/09/05 03:48:27;;;;;;;12.50;7.95;;;;;;;;;;10229044;28;20043;-92
2023/09/05 03:53:28;;;;;;;12.70;7.47;;;;;;;;;;10230381;29;20131;-86
2023/09/05 03:58:32;;;;;;;10.85;7.13;;;;;;;;;;10227017;28;20488;-89
2023/09/05 04:03:33;;;;;;;9.88;6.75;;;;;;;;;;10239950;29;20191;-90
2023/09/05 04:08:37;;;;;;;13.80;7.10;;;;;;;;;;10201523;29;20031;-90
2023/09/05 04:13:38;;;;;;;9.88;6.55;;;;;;;;;;10225610;28;20027;-91
2023/09/05 04:18:55;;;;;;;11.05;7.10;;;;;;;;;;10212550;29;20036;-91
2023/09/05 04:23:58;;;;;;;13.95;7.43;;;;;;;;;;10233109;28;20089;-90
2023/09/05 04:41:14;;;;;;;11.15;6.50;;;;;;;;;;10167578;29;20287;-90
2023/09/05 04:46:48;;;;;;;;;;;;;;;;;;;;;
2023/09/05 04:58:12;;;;;;;15.48;7.25;;;;;;;;;;10121356;29;20062;-88
2023/09/05 05:03:26;;;;;;;14.23;8.27;;;;;;;;;;10104430;29;20048;-90
2023/09/05 05:08:57;;;;;;;14.40;8.40;;;;;;;;;;10094096;29;20096;-90
2023/09/05 05:37:30;;;;;;;13.55;7.70;;;;;;;;;;10088543;29;20029;-93
2023/09/05 05:43:13;;;;;;;;;;;;;;;;;;;;;
2023/09/05 05:48:40;;;;;;;;;;;;;;;;;;;;;
2023/09/05 06:05:39;;;;;;;16.20;9.02;;;;;;;;;;10192777;29;20059;-93
2023/09/05 06:11:11;;;;;;;;;;;;;;;;;;;;;
2023/09/05 06:22:32;;;;;;;17.07;9.83;;;;;;;;;;10103158;29;20140;-93
2023/09/05 06:27:58;;;;;;;19.17;11.43;;;;;;;;;;10148346;29;20118;-93
2023/09/05 06:38:33;;;;;;;;;;;;;;;;;;;;;
2023/09/05 06:44:11;;;;;;;36.85;20.70;;;;;;;;;;10187286;29;20039;-93
2023/09/05 06:49:44;;;;;;;35.60;18.55;;;;;;;;;;10114845;29;20047;-90
2023/09/05 06:54:53;;;;;;;29.17;16.75;;;;;;;;;;10197426;28;20059;-91
2023/09/05 07:05:47;;;;;;;23.30;13.13;;;;;;;;;;10161651;29;20054;-91
2023/09/05 07:11:12;;;;;;;21.38;13.23;;;;;;;;;;10197738;29;20139;-91
2023/09/05 07:16:13;;;;;;;20.00;12.68;;;;;;;;;;10200245;29;20039;-90
2023/09/05 07:26:45;;;;;;;17.17;12.77;;;;;;;;;;10196379;29;20040;-90
2023/09/05 07:31:49;;;;;;;18.15;11.73;;;;;;;;;;10211474;29;20103;-91
2023/09/05 07:37:17;;;;;;;17.35;11.40;;;;;;;;;;10202084;29;20082;-91
2023/09/05 07:42:18;;;;;;;12.25;7.78;;;;;;;;;;10181895;29;20463;-91
2023/09/05 07:47:19;;;;;;;11.95;6.85;;;;;;;;;;10200892;29;20040;-91
2023/09/05 07:52:20;;;;;;;10.73;6.45;;;;;;;;;;10200605;29;20035;-90
2023/09/05 07:57:21;;;;;;;9.38;6.25;;;;;;;;;;10209497;29;20110;-89
2023/09/05 08:02:23;;;;;;;8.85;5.90;;;;;;;;;;10193203;29;20082;-91
2023/09/05 08:07:24;;;;;;;8.82;5.63;;;;;;;;;;10185340;29;20039;-91
2023/09/05 08:12:25;;;;;;;9.30;5.50;;;;;;;;;;10226475;28;20058;-91
2023/09/05 08:23:25;;;;;;;11.00;5.70;;;;;;;;;;10147202;28;20091;-91
2023/09/05 08:28:33;;;;;;;8.85;4.70;;;;;;;;;;10203304;29;20043;-91
2023/09/05 08:33:34;;;;;;;5.95;4.13;;;;;;;;;;10202763;29;20030;-90
2023/09/05 08:38:41;;;;;;;7.43;4.47;;;;;;;;;;10212108;29;20590;-91
2023/09/05 08:43:51;;;;;;;9.95;4.90;;;;;;;;;;10200868;29;20032;-92
2023/09/05 08:48:55;;;;;;;5.57;3.88;;;;;;;;;;10208760;29;20063;-91
2023/09/05 09:23:55;;;;;;;4.28;3.20;;;;;;;;;;10125497;29;20048;-91
2023/09/05 09:29:30;;;;;;;6.07;3.53;;;;;;;;;;10125542;29;20436;-91
2023/09/05 09:40:41;;;;;;;7.20;3.60;;;;;;;;;;10385593;23;20067;-92
2023/09/05 09:45:42;;;;;;;3.65;3.00;;;;;;;;;;10241475;29;20044;-92
2023/09/05 10:14:06;;;;;;;5.00;3.65;;;;;;;;;;10231886;28;20090;-90
2023/09/05 10:19:08;;;;;;;8.50;3.50;;;;;;;;;;10242266;29;20086;-91
2023/09/05 10:29:57;;;;;;;5.95;3.17;;;;;;;;;;10954464;23;20133;-90
2023/09/05 10:35:03;;;;;;;4.05;2.88;;;;;;;;;;10281935;28;20022;-92
2023/09/05 10:40:08;;;;;;;3.17;2.53;;;;;;;;;;10284714;28;20027;-92
2023/09/05 10:45:39;;;;;;;4.38;2.28;;;;;;;;;;10270301;28;20031;-91
2023/09/05 10:50:59;;;;;;;4.25;2.95;;;;;;;;;;10211823;28;20042;-91
2023/09/05 11:23:29;;;;;;;4.35;2.50;;;;;;;;;;11379254;23;20058;-92
2023/09/05 11:28:30;;;;;;;3.70;2.72;;;;;;;;;;10282055;28;20027;-91
2023/09/05 11:33:39;;;;;;;5.85;2.28;;;;;;;;;;10283447;28;20390;-92
2023/09/05 11:38:58;;;;;;;4.10;2.20;;;;;;;;;;10282002;28;20031;-91
2023/09/05 11:49:46;;;;;;;6.10;3.05;;;;;;;;;;10732870;23;20062;-92
2023/09/05 11:55:21;;;;;;;8.82;2.88;;;;;;;;;;10288075;28;20033;-90
2023/09/05 12:00:37;;;;;;;6.85;3.03;;;;;;;;;;10221834;28;20073;-91
2023/09/05 12:05:45;;;;;;;3.97;2.70;;;;;;;;;;10288580;28;20033;-92
2023/09/05 12:10:55;;;;;;;3.22;2.10;;;;;;;;;;10276787;28;20031;-93
2023/09/05 12:33:02;;;;;;;3.53;2.38;;;;;;;;;;10247316;28;20031;-90
2023/09/05 12:38:13;;;;;;;3.25;2.50;;;;;;;;;;10240291;28;20035;-90
2023/09/05 12:43:16;;;;;;;5.03;2.47;;;;;;;;;;10231894;29;20612;-90
2023/09/05 12:48:40;;;;;;;4.45;2.70;;;;;;;;;;10232417;29;20861;-91
2023/09/05 13:11:00;;;;;;;4.22;2.50;;;;;;;;;;10240945;29;20039;-91
2023/09/05 13:16:29;;;;;;;3.80;2.30;;;;;;;;;;10245125;29;20034;-91
2023/09/05 13:21:33;;;;;;;4.72;2.70;;;;;;;;;;10234101;28;20048;-92
2023/09/05 13:26:40;;;;;;;2.58;2.10;;;;;;;;;;10243371;29;20045;-91
2023/09/05 13:43:24;;;;;;;2.92;2.22;;;;;;;;;;10221584;29;20110;-92
2023/09/05 13:48:26;;;;;;;3.33;2.38;;;;;;;;;;10239283;29;20863;-90
2023/09/05 13:53:27;;;;;;;3.83;2.33;;;;;;;;;;10224333;28;20038;-91
2023/09/05 13:58:28;;;;;;;4.55;2.97;;;;;;;;;;10240584;29;20039;-92
2023/09/05 14:03:30;;;;;;;4.60;3.00;;;;;;;;;;10240718;29;20551;-91
2023/09/05 14:08:31;;;;;;;4.45;2.80;;;;;;;;;;10240316;28;20054;-89
2023/09/05 14:13:33;;;;;;;6.35;2.70;;;;;;;;;;10236936;29;20030;-91
2023/09/05 14:18:36;;;;;;;4.05;2.70;;;;;;;;;;10236878;28;20566;-91
2023/09/05 14:23:44;;;;;;;3.88;2.60;;;;;;;;;;10237336;29;20043;-91
2023/09/05 14:28:45;;;;;;;5.07;2.95;;;;;;;;;;10228885;29;20040;-90
2023/09/05 14:33:46;;;;;;;4.15;2.58;;;;;;;;;;10248748;28;20046;-90
2023/09/05 14:38:48;;;;;;;6.53;3.20;;;;;;;;;;10236557;29;20086;-90
2023/09/05 14:43:49;;;;;;;5.85;3.10;;;;;;;;;;10229017;29;20086;-87
2023/09/05 14:48:50;;;;;;;5.10;2.97;;;;;;;;;;10238325;29;20066;-90
2023/09/05 14:53:51;;;;;;;10.25;3.63;;;;;;;;;;10239728;29;20038;-89
2023/09/05 14:58:53;;;;;;;5.43;3.53;;;;;;;;;;10238608;29;20034;-90
2023/09/05 15:03:54;;;;;;;7.13;3.00;;;;;;;;;;10239217;29;20046;-88
2023/09/05 15:08:55;;;;;;;6.15;3.30;;;;;;;;;;10237912;29;20106;-89
2023/09/05 15:14:02;;;;;;;5.20;3.00;;;;;;;;;;10232655;29;20571;-90
2023/09/05 15:19:03;;;;;;;4.57;3.03;;;;;;;;;;10238795;29;20513;-90
2023/09/05 15:24:06;;;;;;;5.65;3.60;;;;;;;;;;10230633;29;20050;-90
2023/09/05 15:29:10;;;;;;;5.40;2.95;;;;;;;;;;10238300;29;20082;-89
2023/09/05 15:34:11;;;;;;;4.47;2.70;;;;;;;;;;10238824;29;20031;-91
2023/09/05 15:39:13;;;;;;;4.45;2.67;;;;;;;;;;10238326;29;20392;-90
2023/09/05 15:44:17;;;;;;;6.80;2.92;;;;;;;;;;10237912;29;20097;-91
2023/09/05 15:49:18;;;;;;;6.70;3.20;;;;;;;;;;10229433;29;20049;-91
2023/09/05 15:54:19;;;;;;;5.47;3.03;;;;;;;;;;10238355;29;20026;-91
2023/09/05 15:59:20;;;;;;;6.28;3.00;;;;;;;;;;10237619;29;20038;-89
2023/09/05 16:04:31;;;;;;;4.10;2.47;;;;;;;;;;10237937;29;20042;-92
2023/09/05 16:09:43;;;;;;;4.72;2.75;;;;;;;;;;10237934;28;20066;-91
2023/09/05 16:20:39;;;;;;;3.85;2.72;;;;;;;;;;10194029;28;20047;-92
2023/09/05 16:25:50;;;;;;;;;;;;;;;;;;;;;
2023/09/05 16:30:58;;;;;;;3.67;2.42;;;;;;;;;;10237498;29;20446;-92
2023/09/05 16:36:10;;;;;;;4.40;2.90;;;;;;;;;;10244561;28;20038;-92
2023/09/05 16:41:17;;;;;;;4.43;2.80;;;;;;;;;;10231410;29;20074;-91
2023/09/05 16:46:36;;;;;;;3.78;2.78;;;;;;;;;;10232299;29;20395;-91
2023/09/05 16:51:38;;;;;;;6.97;3.25;;;;;;;;;;10242232;28;20495;-92
2023/09/05 16:56:39;;;;;;;6.25;3.67;;;;;;;;;;10242850;29;20506;-92
2023/09/05 17:01:41;;;;;;;6.45;3.75;;;;;;;;;;10242901;29;20047;-91
2023/09/05 17:06:42;;;;;;;8.90;4.43;;;;;;;;;;10230472;29;20654;-91
2023/09/05 17:11:43;;;;;;;5.97;3.85;;;;;;;;;;10242119;28;20031;-91
2023/09/05 17:16:47;;;;;;;9.38;4.82;;;;;;;;;;10230374;29;20762;-91
2023/09/05 17:21:48;;;;;;;10.55;5.40;;;;;;;;;;10239781;29;20042;-92
2023/09/05 17:26:50;;;;;;;7.55;3.95;;;;;;;;;;10229602;29;20712;-91
2023/09/05 17:31:52;;;;;;;7.85;4.40;;;;;;;;;;10238831;29;20119;-88
2023/09/05 17:36:59;;;;;;;5.85;3.78;;;;;;;;;;10234523;29;20086;-91
2023/09/05 17:42:06;;;;;;;9.40;4.82;;;;;;;;;;10245533;28;20039;-92
2023/09/05 17:47:07;;;;;;;9.00;5.07;;;;;;;;;;10236476;28;20093;-91
2023/09/05 17:52:11;;;;;;;8.80;4.53;;;;;;;;;;10242076;29;20070;-92
2023/09/05 17:57:12;;;;;;;11.15;5.38;;;;;;;;;;10237609;28;20082;-92
2023/09/05 18:02:16;;;;;;;9.20;4.78;;;;;;;;;;10244746;28;20043;-93
2023/09/05 18:07:20;;;;;;;10.18;4.95;;;;;;;;;;10227934;29;20043;-92
2023/09/05 18:12:51;;;;;;;9.30;5.22;;;;;;;;;;10238590;29;20039;-93
2023/09/05 18:17:59;;;;;;;9.45;5.40;;;;;;;;;;10234304;29;20024;-90
2023/09/05 18:34:45;;;;;;;8.02;4.63;;;;;;;;;;10241373;29;20065;-92
2023/09/05 18:40:09;;;;;;;8.43;4.88;;;;;;;;;;10238882;29;20031;-92
2023/09/05 18:45:39;;;;;;;6.47;4.45;;;;;;;;;;10232977;29;20139;-92
2023/09/05 18:51:04;;;;;;;7.60;4.93;;;;;;;;;;10247224;28;20055;-91
2023/09/05 19:01:44;;;;;;;9.52;4.80;;;;;;;;;;10232438;29;20051;-88
2023/09/05 19:12:40;;;;;;;;;;;;;;;;;;;;;
2023/09/05 19:17:57;;;;;;;9.70;5.88;;;;;;;;;;10222425;29;20035;-90
2023/09/05 19:22:58;;;;;;;12.43;6.43;;;;;;;;;;10239485;29;20042;-88
2023/09/05 19:39:16;;;;;;;9.90;5.68;;;;;;;;;;10240118;29;20039;-91
2023/09/05 19:55:35;;;;;;;10.00;5.28;;;;;;;;;;10232571;29;20439;-90
2023/09/05 20:00:36;;;;;;;13.32;5.72;;;;;;;;;;10231341;29;20437;-91
2023/09/05 20:05:44;;;;;;;11.00;5.10;;;;;;;;;;10225781;28;20082;-92
2023/09/05 20:10:54;;;;;;;9.05;5.82;;;;;;;;;;10247970;28;20059;-92
2023/09/05 20:27:26;;;;;;;9.02;5.68;;;;;;;;;;10248130;29;20063;-91
2023/09/05 20:38:07;;;;;;;10.23;6.32;;;;;;;;;;10239500;29;20114;-90
2023/09/05 21:11:59;;;;;;;15.75;8.07;;;;;;;;;;10255171;28;20117;-89
2023/09/05 21:17:01;;;;;;;19.17;9.50;;;;;;;;;;10268885;28;20027;-94
2023/09/05 21:22:02;;;;;;;20.80;9.35;;;;;;;;;;10259993;28;20121;-89
2023/09/05 21:27:04;;;;;;;20.15;8.98;;;;;;;;;;10259405;28;20801;-93
2023/09/05 21:32:06;;;;;;;18.88;9.90;;;;;;;;;;10268559;28;20082;-91
2023/09/05 21:37:09;;;;;;;18.50;9.60;;;;;;;;;;10259180;28;20046;-94
2023/09/05 21:42:13;;;;;;;17.85;9.52;;;;;;;;;;10271058;28;20483;-92
2023/09/05 21:47:15;;;;;;;18.33;9.43;;;;;;;;;;10278791;28;20031;-93
2023/09/05 21:52:16;;;;;;;18.00;10.18;;;;;;;;;;10258113;28;20412;-91
2023/09/05 21:57:17;;;;;;;18.02;10.15;;;;;;;;;;10257587;28;20066;-93
2023/09/05 22:02:19;;;;;;;18.83;9.77;;;;;;;;;;10268978;28;20087;-92
2023/09/05 22:07:23;;;;;;;19.08;9.90;;;;;;;;;;10256950;28;20053;-92
2023/09/05 22:12:24;;;;;;;20.77;9.65;;;;;;;;;;10249434;28;20061;-91
2023/09/05 22:17:25;;;;;;;19.60;9.10;;;;;;;;;;10276501;28;20147;-91
2023/09/05 22:22:26;;;;;;;20.90;9.73;;;;;;;;;;10270324;28;20118;-92
2023/09/05 22:27:27;;;;;;;15.65;8.90;;;;;;;;;;10277692;28;20498;-92
2023/09/05 22:32:29;;;;;;;14.60;8.82;;;;;;;;;;10273364;28;20123;-92
2023/09/05 22:37:30;;;;;;;16.33;9.57;;;;;;;;;;10262381;28;20086;-92
2023/09/05 22:42:31;;;;;;;15.00;9.82;;;;;;;;;;10279335;28;20039;-91
2023/09/05 22:47:32;;;;;;;18.48;10.38;;;;;;;;;;10269955;28;20031;-91
2023/09/05 22:52:34;;;;;;;16.73;9.80;;;;;;;;;;10255853;28;20114;-92
2023/09/05 22:57:35;;;;;;;20.10;10.60;;;;;;;;;;10267197;28;20407;-91
2023/09/05 23:02:37;;;;;;;14.73;9.18;;;;;;;;;;10276514;28;20129;-91
2023/09/05 23:07:38;;;;;;;18.35;9.38;;;;;;;;;;10253157;28;20030;-92
2023/09/05 23:12:40;;;;;;;13.98;8.30;;;;;;;;;;10266902;28;20023;-91
2023/09/05 23:17:41;;;;;;;11.57;7.82;;;;;;;;;;10267009;28;20035;-92
2023/09/05 23:22:43;;;;;;;11.90;7.95;;;;;;;;;;10272746;28;20054;-91
2023/09/05 23:27:44;;;;;;;15.20;9.38;;;;;;;;;;10250820;28;20590;-91
2023/09/05 23:32:46;;;;;;;18.40;7.95;;;;;;;;;;10266825;28;20042;-91
2023/09/05 23:37:47;;;;;;;12.95;8.30;;;;;;;;;;10269520;28;20035;-90
2023/09/05 23:42:48;;;;;;;13.98;7.70;;;;;;;;;;10270203;28;20491;-92
2023/09/05 23:47:50;;;;;;;11.65;7.90;;;;;;;;;;10251321;28;20062;-90
2023/09/05 23:52:51;;;;;;;10.75;7.35;;;;;;;;;;10277279;28;20042;-91
2023/09/05 23:57:53;;;;;;;11.73;7.78;;;;;;;;;;10276669;28;20037;-93
